sensor_id;sensor_type;location;lat;lon;timestamp;pressure;altitude;pressure_sealevel;temperature;humidity
79780;BME280;69258;52.050;10.334;2023-07-22T00:04:26;99377.84;;;23.34;52.88
79780;BME280;69258;52.050;10.334;2023-07-22T00:19:28;99385.53;;;23.30;52.97
79780;BME280;69258;52.050;10.334;2023-07-22T00:34:29;99377.09;;;23.27;52.69
79780;BME280;69258;52.050;10.334;2023-07-22T00:49:32;99377.09;;;23.27;52.97
79780;BME280;69258;52.050;10.334;2023-07-22T01:04:35;99383.19;;;23.22;53.28
79780;BME280;69258;52.050;10.334;2023-07-22T01:19:37;99380.34;;;23.17;52.88
79780;BME280;69258;52.050;10.334;2023-07-22T01:34:39;99387.03;;;23.15;53.38
79780;BME280;69258;52.050;10.334;2023-07-22T01:49:41;99395.31;;;23.13;52.96
79780;BME280;69258;52.050;10.334;2023-07-22T02:04:44;99389.56;;;23.10;53.00
79780;BME280;69258;52.050;10.334;2023-07-22T02:19:46;99404.88;;;23.09;53.10
79780;BME280;69258;52.050;10.334;2023-07-22T02:34:48;99402.63;;;23.06;52.84
79780;BME280;69258;52.050;10.334;2023-07-22T02:49:50;99421.09;;;23.02;53.06
79780;BME280;69258;52.050;10.334;2023-07-22T03:04:52;99421.28;;;23.01;52.48
79780;BME280;69258;52.050;10.334;2023-07-22T03:19:54;99436.00;;;22.98;52.54
79780;BME280;69258;52.050;10.334;2023-07-22T03:34:56;99441.59;;;22.97;52.28
79780;BME280;69258;52.050;10.334;2023-07-22T03:49:59;99447.22;;;22.95;52.51
79780;BME280;69258;52.050;10.334;2023-07-22T04:05:01;99437.31;;;22.96;52.13
79780;BME280;69258;52.050;10.334;2023-07-22T04:20:04;99440.00;;;22.96;51.81
79780;BME280;69258;52.050;10.334;2023-07-22T04:35:07;99449.66;;;22.97;52.04
79780;BME280;69258;52.050;10.334;2023-07-22T04:50:10;99457.28;;;23.00;52.06
79780;BME280;69258;52.050;10.334;2023-07-22T05:05:12;99478.78;;;23.00;52.54
79780;BME280;69258;52.050;10.334;2023-07-22T05:20:15;99490.88;;;23.09;52.22
79780;BME280;69258;52.050;10.334;2023-07-22T05:35:17;99482.25;;;22.21;51.62
79780;BME280;69258;52.050;10.334;2023-07-22T05:50:19;99488.25;;;22.41;51.02
79780;BME280;69258;52.050;10.334;2023-07-22T06:05:21;99507.22;;;21.59;50.21
79780;BME280;69258;52.050;10.334;2023-07-22T06:20:23;99493.06;;;21.77;49.20
79780;BME280;69258;52.050;10.334;2023-07-22T06:35:26;99506.25;;;22.16;49.01
79780;BME280;69258;52.050;10.334;2023-07-22T06:50:28;99513.44;;;21.53;49.56
79780;BME280;69258;52.050;10.334;2023-07-22T07:05:30;99508.00;;;21.66;49.88
79780;BME280;69258;52.050;10.334;2023-07-22T07:20:32;99504.56;;;21.90;49.31
79780;BME280;69258;52.050;10.334;2023-07-22T07:35:35;99525.50;;;21.37;50.02
79780;BME280;69258;52.050;10.334;2023-07-22T07:50:37;99517.69;;;21.23;50.91
79780;BME280;69258;52.050;10.334;2023-07-22T08:05:40;99543.44;;;22.13;49.62
79780;BME280;69258;52.050;10.334;2023-07-22T08:20:43;99552.38;;;22.31;49.70
79780;BME280;69258;52.050;10.334;2023-07-22T08:35:45;99556.28;;;22.35;49.36
79780;BME280;69258;52.050;10.334;2023-07-22T08:51:02;99562.41;;;22.42;50.65
79780;BME280;69258;52.050;10.334;2023-07-22T09:06:04;99560.53;;;22.43;50.89
79780;BME280;69258;52.050;10.334;2023-07-22T09:21:06;99560.47;;;22.49;50.94
79780;BME280;69258;52.050;10.334;2023-07-22T09:36:10;99554.00;;;22.57;51.59
79780;BME280;69258;52.050;10.334;2023-07-22T09:51:16;99551.19;;;22.77;51.27
79780;BME280;69258;52.050;10.334;2023-07-22T10:06:18;99540.38;;;22.83;50.87
79780;BME280;69258;52.050;10.334;2023-07-22T10:21:22;99532.69;;;22.87;50.76
79780;BME280;69258;52.050;10.334;2023-07-22T10:36:29;99533.63;;;22.92;50.60
79780;BME280;69258;52.050;10.334;2023-07-22T10:51:35;99527.59;;;22.97;50.76
79780;BME280;69258;52.050;10.334;2023-07-22T11:06:51;99509.16;;;23.00;50.66
79780;BME280;69258;52.050;10.334;2023-07-22T11:21:54;99500.72;;;22.97;50.65
79780;BME280;69258;52.050;10.334;2023-07-22T11:36:57;99484.66;;;23.09;51.33
79780;BME280;69258;52.050;10.334;2023-07-22T11:52:07;99473.41;;;23.18;51.99
79780;BME280;69258;52.050;10.334;2023-07-22T12:07:29;99468.16;;;23.23;51.90
79780;BME280;69258;52.050;10.334;2023-07-22T12:22:30;99465.81;;;23.27;51.68
79780;BME280;69258;52.050;10.334;2023-07-22T12:37:33;99460.44;;;23.27;52.51
79780;BME280;69258;52.050;10.334;2023-07-22T12:52:37;99438.94;;;23.27;52.15
79780;BME280;69258;52.050;10.334;2023-07-22T13:07:39;99432.16;;;23.24;51.98
79780;BME280;69258;52.050;10.334;2023-07-22T13:22:42;99435.47;;;23.26;52.51
79780;BME280;69258;52.050;10.334;2023-07-22T13:37:45;99425.84;;;23.30;51.95
79780;BME280;69258;52.050;10.334;2023-07-22T13:52:48;99414.06;;;23.31;52.65
79780;BME280;69258;52.050;10.334;2023-07-22T14:07:51;99401.91;;;23.29;52.12
79780;BME280;69258;52.050;10.334;2023-07-22T14:22:53;99380.97;;;23.31;51.90
79780;BME280;69258;52.050;10.334;2023-07-22T14:37:56;99377.03;;;23.33;51.93
79780;BME280;69258;52.050;10.334;2023-07-22T14:52:59;99353.41;;;23.35;51.77
79780;BME280;69258;52.050;10.334;2023-07-22T15:08:01;99333.28;;;23.38;51.85
79780;BME280;69258;52.050;10.334;2023-07-22T15:23:04;99324.78;;;23.41;51.76
79780;BME280;69258;52.050;10.334;2023-07-22T15:38:07;99306.56;;;23.43;52.35
79780;BME280;69258;52.050;10.334;2023-07-22T15:53:09;99302.00;;;23.43;52.02
79780;BME280;69258;52.050;10.334;2023-07-22T16:08:11;99297.00;;;23.47;51.65
79780;BME280;69258;52.050;10.334;2023-07-22T16:23:14;99288.69;;;23.48;52.30
79780;BME280;69258;52.050;10.334;2023-07-22T16:38:16;99283.91;;;23.50;51.53
79780;BME280;69258;52.050;10.334;2023-07-22T16:53:19;99263.78;;;23.53;51.81
79780;BME280;69258;52.050;10.334;2023-07-22T17:08:21;99259.22;;;23.54;52.45
79780;BME280;69258;52.050;10.334;2023-07-22T17:23:23;99247.41;;;23.55;51.84
79780;BME280;69258;52.050;10.334;2023-07-22T17:38:25;99255.47;;;23.55;52.22
79780;BME280;69258;52.050;10.334;2023-07-22T17:53:27;99244.16;;;23.53;52.44
79780;BME280;69258;52.050;10.334;2023-07-22T18:08:29;99240.63;;;23.52;51.97
79780;BME280;69258;52.050;10.334;2023-07-22T18:23:31;99238.19;;;23.50;52.29
79780;BME280;69258;52.050;10.334;2023-07-22T18:38:33;99237.59;;;23.48;52.85
79780;BME280;69258;52.050;10.334;2023-07-22T18:53:35;99229.53;;;23.48;52.61
79780;BME280;69258;52.050;10.334;2023-07-22T19:08:38;99238.44;;;23.49;52.66
79780;BME280;69258;52.050;10.334;2023-07-22T19:23:40;99240.50;;;23.47;52.66
79780;BME280;69258;52.050;10.334;2023-07-22T19:38:42;99244.25;;;23.46;52.59
79780;BME280;69258;52.050;10.334;2023-07-22T19:53:46;99232.66;;;23.45;53.11
79780;BME280;69258;52.050;10.334;2023-07-22T20:08:47;99229.97;;;23.45;52.60
79780;BME280;69258;52.050;10.334;2023-07-22T20:23:49;99227.28;;;23.45;52.54
79780;BME280;69258;52.050;10.334;2023-07-22T20:38:52;99250.09;;;23.43;53.03
79780;BME280;69258;52.050;10.334;2023-07-22T20:53:54;99248.66;;;23.40;53.28
79780;BME280;69258;52.050;10.334;2023-07-22T21:08:56;99256.75;;;23.40;52.71
79780;BME280;69258;52.050;10.334;2023-07-22T21:23:59;99259.91;;;23.37;53.26
79780;BME280;69258;52.050;10.334;2023-07-22T21:39:00;99260.94;;;23.36;53.06
79780;BME280;69258;52.050;10.334;2023-07-22T21:54:02;99272.75;;;23.35;53.03
79780;BME280;69258;52.050;10.334;2023-07-22T22:09:06;99271.34;;;23.33;53.04
79780;BME280;69258;52.050;10.334;2023-07-22T22:24:07;99275.91;;;23.32;52.65
79780;BME280;69258;52.050;10.334;2023-07-22T22:39:09;99275.28;;;23.30;53.29
79780;BME280;69258;52.050;10.334;2023-07-22T22:54:12;99292.50;;;23.29;52.97
79780;BME280;69258;52.050;10.334;2023-07-22T23:09:13;99305.13;;;23.29;53.26
79780;BME280;69258;52.050;10.334;2023-07-22T23:24:15;99306.41;;;23.26;52.81
79780;BME280;69258;52.050;10.334;2023-07-22T23:39:18;99313.66;;;23.26;52.99
79780;BME280;69258;52.050;10.334;2023-07-22T23:54:19;99321.13;;;23.24;53.12
